Imagination — C6FN2 — position and weather

sailwx.info

Track history (hours):
 
Tides and Currents Weather Stations Pressure Air Temp Water Temp Dewpoint Dewpoint Depression Visibility Wind Speed Wind Dir Waves Ship Positions

Imagination

Operator: Carnival Cruise Lines

Last reported at 2017-Aug-18 10:30 UTC. Time now 2017-Aug-18 10:51 UTC.
Position N 32°07' W 117°24'.

Type: Ship. MMSI: 309933000.

Date/timePositionNaut miles runAvg speedWind from/ knotsBaromVisibWave heightAir tempDewpointWater temp
2017-Aug-18 10:30N 32°07' W 117°24'612.6
2017-Aug-18 10:01N 32°12' W 117°29'612.5
2017-Aug-18 09:30N 32°17' W 117°33'612.6
2017-Aug-18 09:00N 32°24' W 117°34'612.7
2017-Aug-18 08:30N 32°30' W 117°36'612.2
2017-Aug-18 08:00N 32°35' W 117°39'612.3
2017-Aug-18 07:30N 32°37' W 117°46'612.1
2017-Aug-18 07:01N 32°43' W 117°48'612.6
2017-Aug-18 06:30N 32°49' W 117°49'612.9
2017-Aug-18 06:00N 32°56' W 117°51'612.6
2017-Aug-18 05:30N 33°01' W 117°55'612.7
2017-Aug-18 05:00N 33°07' W 117°58'612.7
2017-Aug-18 04:30N 33°12' W 118°02'612.3
2017-Aug-18 04:00N 33°18' W 118°05'611.9
2017-Aug-18 03:31N 33°23' W 118°08'611.9
2017-Aug-18 03:01N 33°29' W 118°10'611.8
2017-Aug-18 02:30N 33°34' W 118°13'611.5
2017-Aug-18 02:01N 33°40' W 118°12'5 9.6
2017-Aug-18 01:30N 33°45' W 118°11'0 0.8
2017-Aug-18 00:59N 33°45' W 118°11'0 0.0
2017-Aug-18 00:26N 33°45' W 118°11'0 0.0
2017-Aug-17 23:59N 33°45' W 118°11'0 0.0
2017-Aug-17 23:29N 33°45' W 118°11'0 0.0
2017-Aug-17 22:58N 33°45' W 118°11'0 0.0
2017-Aug-17 22:28N 33°45' W 118°11'0 0.0
2017-Aug-17 21:58N 33°45' W 118°11'0 0.0
2017-Aug-17 21:28N 33°45' W 118°11'0 0.0
2017-Aug-17 20:58N 33°45' W 118°11'0 0.0
2017-Aug-17 20:30N 33°45' W 118°11'0 0.0
2017-Aug-17 20:00N 33°45' W 118°11'0 0.0
2017-Aug-17 19:30N 33°45' W 118°11'0 0.0
2017-Aug-17 19:00N 33°45' W 118°11'0 0.0
2017-Aug-17 18:30N 33°45' W 118°11'0 0.0
2017-Aug-17 17:59N 33°45' W 118°11'0 0.0
2017-Aug-17 17:20N 33°45' W 118°11'0 0.0
2017-Aug-17 16:59N 33°45' W 118°11'0 0.0
2017-Aug-17 16:29N 33°45' W 118°11'0 0.0
2017-Aug-17 15:55N 33°45' W 118°11'0 0.0
2017-Aug-17 15:22N 33°45' W 118°11'0 0.0
2017-Aug-17 14:55N 33°45' W 118°11'0 0.0
2017-Aug-17 14:28N 33°45' W 118°11'0 0.0
2017-Aug-17 13:58N 33°45' W 118°11'0 0.0
2017-Aug-17 13:30N 33°45' W 118°11'0 0.0
2017-Aug-17 13:00N 33°45' W 118°11'0 0.5
2017-Aug-17 12:30N 33°45' W 118°11'3 6.4
2017-Aug-17 12:00N 33°42' W 118°11'5 9.3
2017-Aug-17 11:31N 33°37' W 118°10'4 7.9
2017-Aug-17 11:01N 33°33' W 118°09'4 7.1
2017-Aug-17 10:31N 33°30' W 118°07'3 6.4
2017-Aug-17 10:00N 33°27' W 118°06'3 7.0
2017-Aug-17 09:30N 33°24' W 118°04'4 7.4
2017-Aug-17 09:00N 33°20' W 118°03'4 7.6
2017-Aug-17 08:30N 33°17' W 118°01'4 7.4
2017-Aug-17 08:01N 33°13' W 117°59'4 7.4
2017-Aug-17 07:30N 33°10' W 117°58'4 7.2
2017-Aug-17 07:01N 33°07' W 117°56'4 7.2
2017-Aug-17 06:31N 33°03' W 117°54'4 7.1
2017-Aug-17 06:01N 32°60' W 117°53'4 7.2
2017-Aug-17 05:31N 32°57' W 117°51'4 7.0
2017-Aug-17 05:00N 32°53' W 117°50'3 7.0
2017-Aug-17 04:30N 32°50' W 117°49'3 6.6
2017-Aug-17 04:00N 32°47' W 117°48'3 6.6
2017-Aug-17 03:30N 32°43' W 117°47'3 6.7
2017-Aug-17 03:00N 32°40' W 117°46'3 6.5
2017-Aug-17 02:30N 32°37' W 117°45'3 7.0
2017-Aug-17 02:01N 32°36' W 117°41'4 7.1
2017-Aug-17 01:31N 32°35' W 117°37'4 7.3
2017-Aug-17 01:01N 32°31' W 117°37'4 7.4
2017-Aug-17 00:30N 32°28' W 117°37'4 7.3
2017-Aug-17 00:01N 32°24' W 117°37'4 7.1
2017-Aug-16 23:31N 32°20' W 117°37'3 6.9
2017-Aug-16 23:01N 32°17' W 117°37'3 6.5
2017-Aug-16 22:31N 32°14' W 117°36'3 6.5
2017-Aug-16 22:01N 32°10' W 117°37'3 6.7
2017-Aug-16 21:31N 32°07' W 117°38'3 6.6
2017-Aug-16 21:01N 32°04' W 117°38'3 6.6
2017-Aug-16 20:31N 32°01' W 117°37'3 6.5
2017-Aug-16 20:00N 31°57' W 117°37'3 6.5
2017-Aug-16 19:30N 31°54' W 117°37'3 6.5
2017-Aug-16 19:01N 31°51' W 117°37'3 6.2
2017-Aug-16 18:31N 31°49' W 117°40'3 6.7
2017-Aug-16 18:01N 31°49' W 117°44'3 6.8
2017-Aug-16 17:30N 31°48' W 117°48'3 6.8
2017-Aug-16 17:00N 31°47' W 117°52'3 6.7
2017-Aug-16 16:31N 31°47' W 117°55'3 6.7
2017-Aug-16 16:00N 31°46' W 117°59'3 6.7
2017-Aug-16 15:31N 31°45' W 118°03'4 8.0
2017-Aug-16 15:01N 31°45' W 118°08'3 7.0
2017-Aug-16 14:31N 31°43' W 118°11'3 7.0
2017-Aug-16 14:01N 31°40' W 118°12'3 6.7
2017-Aug-16 13:31N 31°36' W 118°11'3 6.1
2017-Aug-16 13:00N 31°34' W 118°08'3 6.7
2017-Aug-16 12:31N 31°35' W 118°04'3 6.8
2017-Aug-16 12:00N 31°36' W 118°01'3 6.7
2017-Aug-16 11:31N 31°37' W 117°57'4 7.1
2017-Aug-16 11:00N 31°38' W 117°53'4 7.2
2017-Aug-16 10:31N 31°39' W 117°49'4 7.4
2017-Aug-16 10:00N 31°40' W 117°44'4 7.4
2017-Aug-16 09:30N 31°41' W 117°40'4 7.1
2017-Aug-16 09:01N 31°42' W 117°36'4 7.3
2017-Aug-16 08:31N 31°43' W 117°32'4 7.3
2017-Aug-16 07:59N 31°44' W 117°28'4 7.1
2017-Aug-16 07:25N 31°45' W 117°23'3 6.7
2017-Aug-16 07:00N 31°46' W 117°20'4 7.0
2017-Aug-16 06:30N 31°47' W 117°16'3 6.8
2017-Aug-16 06:01N 31°48' W 117°12'4 6.8
2017-Aug-16 05:27N 31°49' W 117°08'3 7.0
2017-Aug-16 05:00N 31°50' W 117°04'4 7.4
2017-Aug-16 04:30N 31°51' W 117°00'4 6.9
2017-Aug-16 03:59N 31°52' W 116°56'4 7.0
2017-Aug-16 03:23N 31°53' W 116°51'3 7.2
2017-Aug-16 03:00N 31°53' W 116°48'4 7.1
2017-Aug-16 02:28N 31°51' W 116°45'1 0.1
2017-Aug-15 13:30N 31°50' W 116°44'14 8.3
2017-Aug-15 11:49N 31°56' W 116°59'3 9.0
2017-Aug-15 11:30N 31°57' W 117°02'5 8.5
2017-Aug-15 10:55N 31°58' W 117°07'3 8.3
2017-Aug-15 10:30N 31°58' W 117°11'4 8.3
2017-Aug-15 09:59N 31°60' W 117°16'4 8.4
2017-Aug-15 09:29N 32°03' W 117°20'4 8.3
2017-Aug-15 09:00N 32°06' W 117°23'4 8.5
2017-Aug-15 08:30N 32°09' W 117°26'4 8.6
2017-Aug-15 08:00N 32°12' W 117°30'4 8.7
2017-Aug-15 07:30N 32°15' W 117°33'4 8.8
2017-Aug-15 07:00N 32°20' W 117°34'5 9.3
2017-Aug-15 06:30N 32°24' W 117°35'5 9.7
2017-Aug-15 06:00N 32°29' W 117°37'510.1
2017-Aug-15 05:30N 32°32' W 117°42'510.6
2017-Aug-15 05:00N 32°37' W 117°45'510.7
2017-Aug-15 04:30N 32°42' W 117°47'510.8
2017-Aug-15 04:00N 32°47' W 117°48'510.7
2017-Aug-15 03:30N 32°52' W 117°50'510.3
2017-Aug-15 03:00N 32°57' W 117°53'510.5
2017-Aug-15 02:30N 33°01' W 117°57'510.5
2017-Aug-15 02:00N 33°05' W 118°01'510.4
2017-Aug-15 01:30N 33°09' W 118°05'510.2
2017-Aug-15 01:00N 33°12' W 118°09'510.1
2017-Aug-15 00:30N 33°16' W 118°13'5 9.6
2017-Aug-15 00:00N 33°20' W 118°17'2 4.3
2017-Aug-14 23:29N 33°21' W 118°19'0 0.1
2017-Aug-14 22:57N 33°21' W 118°19'0 0.1
2017-Aug-14 22:30N 33°21' W 118°19'0 0.1
2017-Aug-14 21:57N 33°21' W 118°19'0 0.1
2017-Aug-14 21:29N 33°21' W 118°19'0 0.0
2017-Aug-14 20:59N 33°21' W 118°19'0 0.0
2017-Aug-14 20:20N 33°21' W 118°19'0 0.0
2017-Aug-14 19:59N 33°21' W 118°19'0 0.0
2017-Aug-14 19:28N 33°21' W 118°19'0 0.0
2017-Aug-14 18:58N 33°21' W 118°19'0 0.0
2017-Aug-14 18:28N 33°21' W 118°19'0 0.0
2017-Aug-14 17:58N 33°21' W 118°19'0 0.1
2017-Aug-14 17:28N 33°21' W 118°19'0 0.0
2017-Aug-14 16:57N 33°21' W 118°19'0 0.0
2017-Aug-14 16:31N 33°21' W 118°19'0 0.0
2017-Aug-14 16:01N 33°21' W 118°19'0 0.0
2017-Aug-14 15:30N 33°21' W 118°19'0 0.0
2017-Aug-14 15:01N 33°21' W 118°19'0 0.0
2017-Aug-14 14:30N 33°21' W 118°19'0 0.3
2017-Aug-14 14:00N 33°21' W 118°19'3 5.6
2017-Aug-14 13:30N 33°19' W 118°17'3 7.0
2017-Aug-14 13:01N 33°15' W 118°17'3 6.6
2017-Aug-14 12:30N 33°12' W 118°17'3 6.7
2017-Aug-14 12:01N 33°08' W 118°17'3 7.0
2017-Aug-14 11:30N 33°05' W 118°16'3 6.7
2017-Aug-14 11:00N 33°03' W 118°13'3 6.6
2017-Aug-14 10:31N 33°01' W 118°10'3 6.6
2017-Aug-14 10:01N 32°58' W 118°08'3 6.8
2017-Aug-14 09:31N 32°56' W 118°05'4 6.9
2017-Aug-14 09:00N 32°54' W 118°01'3 6.4
2017-Aug-14 08:31N 32°52' W 117°58'3 5.9
2017-Aug-14 08:01N 32°55' W 117°56'3 6.8
2017-Aug-14 07:30N 32°58' W 117°57'4 7.3
2017-Aug-14 07:01N 33°02' W 117°58'4 7.0
2017-Aug-14 06:31N 33°05' W 117°60'4 7.0
2017-Aug-14 06:01N 33°08' W 118°01'4 7.1
2017-Aug-14 05:31N 33°11' W 118°03'3 6.9
2017-Aug-14 05:00N 33°15' W 118°04'3 7.0
2017-Aug-14 04:31N 33°18' W 118°06'4 7.2
2017-Aug-14 04:00N 33°21' W 118°07'3 7.0
2017-Aug-14 03:31N 33°25' W 118°09'3 7.0
2017-Aug-14 03:01N 33°28' W 118°10'3 6.9
2017-Aug-14 02:31N 33°31' W 118°11'4 7.7
2017-Aug-14 02:00N 33°35' W 118°13'611.1
2017-Aug-14 01:30N 33°40' W 118°12'4 8.5
2017-Aug-14 01:00N 33°44' W 118°11'1 1.7
2017-Aug-14 00:30N 33°45' W 118°11'0 0.0
2017-Aug-14 00:00N 33°45' W 118°11'0 0.0
2017-Aug-13 23:30N 33°45' W 118°11'0 0.0
2017-Aug-13 23:00N 33°45' W 118°11'0 0.0
2017-Aug-13 22:29N 33°45' W 118°11'0 0.0
2017-Aug-13 21:59N 33°45' W 118°11'0 0.0
2017-Aug-13 21:29N 33°45' W 118°11'0 0.0
2017-Aug-13 20:59N 33°45' W 118°11'0 0.0
2017-Aug-13 20:30N 33°45' W 118°11'0 0.0
2017-Aug-13 20:00N 33°45' W 118°11'0 0.0
2017-Aug-13 19:30N 33°45' W 118°11'0 0.0
2017-Aug-13 19:01N 33°45' W 118°11'0 0.0
2017-Aug-13 18:30N 33°45' W 118°11'0 0.0
2017-Aug-13 18:00N 33°45' W 118°11'0 0.0
2017-Aug-13 17:30N 33°45' W 118°11'0 0.1
2017-Aug-13 16:58N 33°45' W 118°11'0 0.1
2017-Aug-13 16:26N 33°45' W 118°11'0 0.0
2017-Aug-13 15:59N 33°45' W 118°11'0 0.0
2017-Aug-13 15:29N 33°45' W 118°11'0 0.0
2017-Aug-13 14:56N 33°45' W 118°11'0 0.0
2017-Aug-13 14:29N 33°45' W 118°11'0 0.0
2017-Aug-13 13:58N 33°45' W 118°11'0 0.0
2017-Aug-13 13:28N 33°45' W 118°11'0 0.0
2017-Aug-13 13:00N 33°45' W 118°11'0 0.7
2017-Aug-13 12:31N 33°45' W 118°11'3 6.3
2017-Aug-13 12:01N 33°42' W 118°11'5 9.2
2017-Aug-13 11:31N 33°37' W 118°10'4 8.1
2017-Aug-13 11:01N 33°33' W 118°09'4 7.4
2017-Aug-13 10:31N 33°30' W 118°07'4 7.0
2017-Aug-13 10:01N 33°27' W 118°05'3 6.3
2017-Aug-13 09:30N 33°24' W 118°04'3 6.9
2017-Aug-13 09:00N 33°20' W 118°03'3 6.9
2017-Aug-13 08:31N 33°17' W 118°01'3 7.0
2017-Aug-13 08:01N 33°14' W 117°60'3 7.0
2017-Aug-13 07:30N 33°11' W 117°58'4 7.1
2017-Aug-13 07:01N 33°07' W 117°57'4 7.2
2017-Aug-13 06:30N 33°04' W 117°55'4 7.2
2017-Aug-13 06:00N 33°01' W 117°53'4 7.2
2017-Aug-13 05:31N 32°57' W 117°52'4 7.5
2017-Aug-13 05:00N 32°54' W 117°50'4 7.3
2017-Aug-13 04:30N 32°50' W 117°49'4 7.5
2017-Aug-13 04:01N 32°47' W 117°49'4 7.4
2017-Aug-13 03:31N 32°43' W 117°47'4 7.3
2017-Aug-13 03:00N 32°40' W 117°46'4 7.2
2017-Aug-13 02:31N 32°36' W 117°44'4 7.6
2017-Aug-13 02:01N 32°35' W 117°40'4 7.0
2017-Aug-13 01:30N 32°33' W 117°37'4 7.4
2017-Aug-13 01:01N 32°29' W 117°37'4 7.2
2017-Aug-13 00:30N 32°26' W 117°36'4 7.4
2017-Aug-13 00:00N 32°22' W 117°37'4 7.5
2017-Aug-12 23:31N 32°18' W 117°37'4 7.0
2017-Aug-12 23:01N 32°15' W 117°37'3 6.6
2017-Aug-12 22:30N 32°11' W 117°37'3 6.7
2017-Aug-12 22:00N 32°08' W 117°37'3 6.6
2017-Aug-12 21:31N 32°05' W 117°36'3 6.5
2017-Aug-12 21:00N 32°02' W 117°36'3 6.6
2017-Aug-12 20:30N 31°58' W 117°36'3 6.5
2017-Aug-12 20:00N 31°55' W 117°37'3 6.7
2017-Aug-12 19:30N 31°52' W 117°37'3 6.1
2017-Aug-12 19:00N 31°50' W 117°39'3 6.8
2017-Aug-12 18:31N 31°49' W 117°43'3 6.9
2017-Aug-12 18:01N 31°48' W 117°47'3 6.8
2017-Aug-12 17:30N 31°47' W 117°51'3 6.6
2017-Aug-12 17:01N 31°47' W 117°55'3 6.7
2017-Aug-12 16:31N 31°46' W 117°59'3 6.5
2017-Aug-12 16:00N 31°46' W 118°03'3 6.6
2017-Aug-12 15:31N 31°45' W 118°06'3 6.7
2017-Aug-12 15:01N 31°45' W 118°10'3 6.9
2017-Aug-12 14:31N 31°41' W 118°12'4 7.2
2017-Aug-12 14:00N 31°38' W 118°11'3 6.6
2017-Aug-12 13:30N 31°35' W 118°10'3 6.4
2017-Aug-12 13:01N 31°35' W 118°06'4 7.0
2017-Aug-12 12:30N 31°36' W 118°02'3 7.0
2017-Aug-12 12:01N 31°37' W 117°58'4 7.0
2017-Aug-12 11:30N 31°38' W 117°54'3 7.0
2017-Aug-12 11:00N 31°39' W 117°50'3 6.9
2017-Aug-12 10:31N 31°40' W 117°46'4 7.0
2017-Aug-12 10:00N 31°41' W 117°42'3 7.0
2017-Aug-12 09:31N 31°42' W 117°39'3 7.0
2017-Aug-12 09:01N 31°43' W 117°35'4 7.1
2017-Aug-12 08:30N 31°44' W 117°31'4 7.0
2017-Aug-12 08:00N 31°45' W 117°27'3 6.7
2017-Aug-12 07:31N 31°45' W 117°23'3 6.6
2017-Aug-12 07:00N 31°46' W 117°19'3 6.4
2017-Aug-12 06:30N 31°47' W 117°15'4 6.9
2017-Aug-12 05:55N 31°48' W 117°11'3 6.8
2017-Aug-12 05:30N 31°49' W 117°08'10 6.7
2017-Aug-12 04:04N 31°52' W 116°57'2 6.9
2017-Aug-12 03:44N 31°52' W 116°54'4 6.9
2017-Aug-12 03:06N 31°53' W 116°49'1 6.4
2017-Aug-12 02:56N 31°53' W 116°48'3 6.6
2017-Aug-12 02:30N 31°51' W 116°45'5 0.4
2017-Aug-11 14:07N 31°50' W 116°39'711.1
2017-Aug-11 13:26N 31°53' W 116°47'512.3
2017-Aug-11 13:00N 31°54' W 116°53'612.5
2017-Aug-11 12:30N 31°55' W 117°00'611.6
2017-Aug-11 11:59N 31°57' W 117°07'612.1
2017-Aug-11 11:30N 31°59' W 117°14'611.6
2017-Aug-11 11:00N 32°02' W 117°19'612.1
2017-Aug-11 10:31N 32°07' W 117°24'612.4
2017-Aug-11 10:00N 32°12' W 117°29'612.1
2017-Aug-11 09:30N 32°17' W 117°33'612.3
2017-Aug-11 09:00N 32°23' W 117°35'612.7
2017-Aug-11 08:30N 32°29' W 117°36'612.2
2017-Aug-11 08:00N 32°35' W 117°38'611.8
2017-Aug-11 07:30N 32°37' W 117°45'612.2
2017-Aug-11 07:00N 32°42' W 117°47'612.6
2017-Aug-11 06:30N 32°49' W 117°49'612.5
2017-Aug-11 06:00N 32°55' W 117°50'612.0
2017-Aug-11 05:30N 33°00' W 117°53'612.4
2017-Aug-11 05:00N 33°05' W 117°57'612.4
2017-Aug-11 04:30N 33°11' W 118°01'612.5
2017-Aug-11 04:00N 33°16' W 118°04'612.0
2017-Aug-11 03:30N 33°22' W 118°07'611.6
2017-Aug-11 03:00N 33°27' W 118°10'611.7
2017-Aug-11 02:30N 33°33' W 118°12'611.5
2017-Aug-11 02:00N 33°38' W 118°12'510.5
2017-Aug-11 01:30N 33°44' W 118°11'2 2.8
2017-Aug-11 00:57N 33°45' W 118°11'0 0.0
2017-Aug-11 00:27N 33°45' W 118°11'0 0.0
2017-Aug-10 23:56N 33°45' W 118°11'0 0.0
2017-Aug-10 23:29N 33°45' W 118°11'0 0.0
2017-Aug-10 22:59N 33°45' W 118°11'0 0.0
2017-Aug-10 22:29N 33°45' W 118°11'0 0.0
2017-Aug-10 21:59N 33°45' W 118°11'0 0.0
2017-Aug-10 21:28N 33°45' W 118°11'0 0.0
2017-Aug-10 20:58N 33°45' W 118°11'0 0.0
2017-Aug-10 20:28N 33°45' W 118°11'0 0.0
2017-Aug-10 19:58N 33°45' W 118°11'0 0.0
2017-Aug-10 19:30N 33°45' W 118°11'0 0.0
2017-Aug-10 19:00N 33°45' W 118°11'0 0.0
2017-Aug-10 18:30N 33°45' W 118°11'0 0.0
2017-Aug-10 18:00N 33°45' W 118°11'0 0.0
2017-Aug-10 17:30N 33°45' W 118°11'0 0.0
2017-Aug-10 16:59N 33°45' W 118°11'0 0.0
2017-Aug-10 16:29N 33°45' W 118°11'0 0.0
2017-Aug-10 15:59N 33°45' W 118°11'0 0.0
2017-Aug-10 15:29N 33°45' W 118°11'0 0.0
2017-Aug-10 14:58N 33°45' W 118°11'0 0.0
2017-Aug-10 14:28N 33°45' W 118°11'0 0.0
2017-Aug-10 13:58N 33°45' W 118°11'0 0.0
2017-Aug-10 13:28N 33°45' W 118°11'0 0.0
2017-Aug-10 13:00N 33°45' W 118°11'0 0.7
2017-Aug-10 12:31N 33°45' W 118°11'3 5.2
2017-Aug-10 12:00N 33°42' W 118°11'5 9.4
2017-Aug-10 11:30N 33°38' W 118°10'4 7.8
2017-Aug-10 11:00N 33°34' W 118°09'4 7.7
2017-Aug-10 10:30N 33°30' W 118°07'3 6.9
2017-Aug-10 10:00N 33°27' W 118°06'3 6.9
2017-Aug-10 09:30N 33°24' W 118°04'4 7.0
2017-Aug-10 09:00N 33°20' W 118°03'3 6.9
2017-Aug-10 08:31N 33°17' W 118°01'3 6.8
2017-Aug-10 08:00N 33°14' W 117°60'3 6.8
2017-Aug-10 07:30N 33°11' W 117°58'4 7.3
2017-Aug-10 07:00N 33°07' W 117°57'4 7.1
2017-Aug-10 06:30N 33°04' W 117°55'4 7.1
2017-Aug-10 06:00N 33°01' W 117°53'3 7.0
2017-Aug-10 05:30N 32°58' W 117°52'3 7.0
2017-Aug-10 05:00N 32°54' W 117°50'3 7.0
2017-Aug-10 04:30N 32°51' W 117°49'3 7.0
2017-Aug-10 04:00N 32°48' W 117°48'4 7.8
2017-Aug-10 03:30N 32°44' W 117°48'4 7.6
2017-Aug-10 03:00N 32°40' W 117°47'4 7.3
2017-Aug-10 02:30N 32°37' W 117°45'4 7.8
2017-Aug-10 02:00N 32°36' W 117°40'4 7.4
2017-Aug-10 01:30N 32°33' W 117°37'4 7.4
2017-Aug-10 01:00N 32°30' W 117°37'4 7.2
2017-Aug-10 00:30N 32°26' W 117°37'4 7.3
2017-Aug-10 00:00N 32°22' W 117°37'4 7.5
2017-Aug-09 23:30N 32°19' W 117°37'4 7.5
2017-Aug-09 23:00N 32°15' W 117°37'4 7.3
2017-Aug-09 22:30N 32°11' W 117°37'3 7.0
2017-Aug-09 22:00N 32°08' W 117°36'4 7.3
2017-Aug-09 21:30N 32°04' W 117°37'4 7.4
2017-Aug-09 21:00N 32°01' W 117°37'4 7.3
2017-Aug-09 20:30N 31°57' W 117°36'4 7.3
2017-Aug-09 20:00N 31°53' W 117°37'3 7.0
2017-Aug-09 19:30N 31°50' W 117°37'4 7.1
2017-Aug-09 19:00N 31°48' W 117°41'4 7.3
2017-Aug-09 18:30N 31°46' W 117°45'4 7.3
2017-Aug-09 18:00N 31°45' W 117°49'3 6.3
2017-Aug-09 17:30N 31°42' W 117°50'3 6.5
2017-Aug-09 17:00N 31°43' W 117°54'3 6.9
2017-Aug-09 16:30N 31°46' W 117°57'4 7.0
2017-Aug-09 16:00N 31°46' W 118°01'4 7.1
2017-Aug-09 15:30N 31°45' W 118°05'3 6.4
2017-Aug-09 15:00N 31°44' W 118°09'3 6.9
2017-Aug-09 14:30N 31°42' W 118°12'3 7.0
2017-Aug-09 14:00N 31°39' W 118°11'3 6.9
2017-Aug-09 13:30N 31°35' W 118°10'3 6.1
2017-Aug-09 13:00N 31°35' W 118°07'3 6.7
2017-Aug-09 12:30N 31°36' W 118°03'3 6.7
2017-Aug-09 12:00N 31°37' W 117°59'3 6.9
2017-Aug-09 11:30N 31°38' W 117°55'4 7.3
2017-Aug-09 11:00N 31°38' W 117°51'4 7.2
2017-Aug-09 10:30N 31°39' W 117°47'4 7.1
2017-Aug-09 09:56N 31°41' W 117°43'3 7.3
2017-Aug-09 09:30N 31°41' W 117°39'4 7.1
2017-Aug-09 09:00N 31°42' W 117°35'4 7.3
2017-Aug-09 08:30N 31°43' W 117°31'4 7.3
2017-Aug-09 08:00N 31°44' W 117°27'4 7.1
2017-Aug-09 07:30N 31°45' W 117°23'3 6.7
2017-Aug-09 07:00N 31°46' W 117°19'4 6.5
2017-Aug-09 06:26N 31°47' W 117°15'3 6.6
2017-Aug-09 05:59N 31°48' W 117°12'3 7.0
2017-Aug-09 05:30N 31°49' W 117°08'4 7.0
2017-Aug-09 04:59N 31°50' W 117°04'4 6.8
2017-Aug-09 04:26N 31°51' W 116°59'3 6.5
2017-Aug-09 03:55N 31°52' W 116°56'3 6.9
2017-Aug-09 03:29N 31°52' W 116°52'3 6.8
2017-Aug-09 03:00N 31°53' W 116°48'3 6.7
2017-Aug-09 02:30N 31°51' W 116°45'3 6.6
2017-Aug-09 02:00N 31°50' W 116°41'1 0.1
2017-Aug-08 13:55N 31°50' W 116°40'4 7.2
2017-Aug-08 13:25N 31°50' W 116°44'3 6.7
2017-Aug-08 13:00N 31°52' W 116°46'5 9.4
2017-Aug-08 12:29N 31°54' W 116°52'5 9.6
2017-Aug-08 12:00N 31°55' W 116°57'5 9.5
2017-Aug-08 11:31N 31°56' W 117°02'5 9.2
2017-Aug-08 11:00N 31°58' W 117°08'  
Track history (hours):
 
Tides and Currents Weather Stations Pressure Air Temp Water Temp Dewpoint Dewpoint Depression Visibility Wind Speed Wind Dir Waves Ship Positions

Imagination

Operator: Carnival Cruise Lines

Last reported at 2017-Aug-18 10:30 UTC. Time now 2017-Aug-18 10:51 UTC.
Position N 32°07' W 117°24'.

Type: Ship. MMSI: 309933000.

Date/timePositionNaut miles runAvg speedWind from/ knotsBaromVisibWave heightAir tempDewpointWater temp
2017-Aug-18 10:30N 32°07' W 117°24'612.6
2017-Aug-18 10:01N 32°12' W 117°29'612.5
2017-Aug-18 09:30N 32°17' W 117°33'612.6
2017-Aug-18 09:00N 32°24' W 117°34'612.7
2017-Aug-18 08:30N 32°30' W 117°36'612.2
2017-Aug-18 08:00N 32°35' W 117°39'612.3
2017-Aug-18 07:30N 32°37' W 117°46'612.1
2017-Aug-18 07:01N 32°43' W 117°48'612.6
2017-Aug-18 06:30N 32°49' W 117°49'612.9
2017-Aug-18 06:00N 32°56' W 117°51'612.6
2017-Aug-18 05:30N 33°01' W 117°55'612.7
2017-Aug-18 05:00N 33°07' W 117°58'612.7
2017-Aug-18 04:30N 33°12' W 118°02'612.3
2017-Aug-18 04:00N 33°18' W 118°05'611.9
2017-Aug-18 03:31N 33°23' W 118°08'611.9
2017-Aug-18 03:01N 33°29' W 118°10'611.8
2017-Aug-18 02:30N 33°34' W 118°13'611.5
2017-Aug-18 02:01N 33°40' W 118°12'5 9.6
2017-Aug-18 01:30N 33°45' W 118°11'0 0.8
2017-Aug-18 00:59N 33°45' W 118°11'0 0.0
2017-Aug-18 00:26N 33°45' W 118°11'0 0.0
2017-Aug-17 23:59N 33°45' W 118°11'0 0.0
2017-Aug-17 23:29N 33°45' W 118°11'0 0.0
2017-Aug-17 22:58N 33°45' W 118°11'0 0.0
2017-Aug-17 22:28N 33°45' W 118°11'0 0.0
2017-Aug-17 21:58N 33°45' W 118°11'0 0.0
2017-Aug-17 21:28N 33°45' W 118°11'0 0.0
2017-Aug-17 20:58N 33°45' W 118°11'0 0.0
2017-Aug-17 20:30N 33°45' W 118°11'0 0.0
2017-Aug-17 20:00N 33°45' W 118°11'0 0.0
2017-Aug-17 19:30N 33°45' W 118°11'0 0.0
2017-Aug-17 19:00N 33°45' W 118°11'0 0.0
2017-Aug-17 18:30N 33°45' W 118°11'0 0.0
2017-Aug-17 17:59N 33°45' W 118°11'0 0.0
2017-Aug-17 17:20N 33°45' W 118°11'0 0.0
2017-Aug-17 16:59N 33°45' W 118°11'0 0.0
2017-Aug-17 16:29N 33°45' W 118°11'0 0.0
2017-Aug-17 15:55N 33°45' W 118°11'0 0.0
2017-Aug-17 15:22N 33°45' W 118°11'0 0.0
2017-Aug-17 14:55N 33°45' W 118°11'0 0.0
2017-Aug-17 14:28N 33°45' W 118°11'0 0.0
2017-Aug-17 13:58N 33°45' W 118°11'0 0.0
2017-Aug-17 13:30N 33°45' W 118°11'0 0.0
2017-Aug-17 13:00N 33°45' W 118°11'0 0.5
2017-Aug-17 12:30N 33°45' W 118°11'3 6.4
2017-Aug-17 12:00N 33°42' W 118°11'5 9.3
2017-Aug-17 11:31N 33°37' W 118°10'4 7.9
2017-Aug-17 11:01N 33°33' W 118°09'4 7.1
2017-Aug-17 10:31N 33°30' W 118°07'3 6.4
2017-Aug-17 10:00N 33°27' W 118°06'3 7.0
2017-Aug-17 09:30N 33°24' W 118°04'4 7.4
2017-Aug-17 09:00N 33°20' W 118°03'4 7.6
2017-Aug-17 08:30N 33°17' W 118°01'4 7.4
2017-Aug-17 08:01N 33°13' W 117°59'4 7.4
2017-Aug-17 07:30N 33°10' W 117°58'4 7.2
2017-Aug-17 07:01N 33°07' W 117°56'4 7.2
2017-Aug-17 06:31N 33°03' W 117°54'4 7.1
2017-Aug-17 06:01N 32°60' W 117°53'4 7.2
2017-Aug-17 05:31N 32°57' W 117°51'4 7.0
2017-Aug-17 05:00N 32°53' W 117°50'3 7.0
2017-Aug-17 04:30N 32°50' W 117°49'3 6.6
2017-Aug-17 04:00N 32°47' W 117°48'3 6.6
2017-Aug-17 03:30N 32°43' W 117°47'3 6.7
2017-Aug-17 03:00N 32°40' W 117°46'3 6.5
2017-Aug-17 02:30N 32°37' W 117°45'3 7.0
2017-Aug-17 02:01N 32°36' W 117°41'4 7.1
2017-Aug-17 01:31N 32°35' W 117°37'4 7.3
2017-Aug-17 01:01N 32°31' W 117°37'4 7.4
2017-Aug-17 00:30N 32°28' W 117°37'4 7.3
2017-Aug-17 00:01N 32°24' W 117°37'4 7.1
2017-Aug-16 23:31N 32°20' W 117°37'3 6.9
2017-Aug-16 23:01N 32°17' W 117°37'3 6.5
2017-Aug-16 22:31N 32°14' W 117°36'3 6.5
2017-Aug-16 22:01N 32°10' W 117°37'3 6.7
2017-Aug-16 21:31N 32°07' W 117°38'3 6.6
2017-Aug-16 21:01N 32°04' W 117°38'3 6.6
2017-Aug-16 20:31N 32°01' W 117°37'3 6.5
2017-Aug-16 20:00N 31°57' W 117°37'3 6.5
2017-Aug-16 19:30N 31°54' W 117°37'3 6.5
2017-Aug-16 19:01N 31°51' W 117°37'3 6.2
2017-Aug-16 18:31N 31°49' W 117°40'3 6.7
2017-Aug-16 18:01N 31°49' W 117°44'3 6.8
2017-Aug-16 17:30N 31°48' W 117°48'3 6.8
2017-Aug-16 17:00N 31°47' W 117°52'3 6.7
2017-Aug-16 16:31N 31°47' W 117°55'3 6.7
2017-Aug-16 16:00N 31°46' W 117°59'3 6.7
2017-Aug-16 15:31N 31°45' W 118°03'4 8.0
2017-Aug-16 15:01N 31°45' W 118°08'3 7.0
2017-Aug-16 14:31N 31°43' W 118°11'3 7.0
2017-Aug-16 14:01N 31°40' W 118°12'3 6.7
2017-Aug-16 13:31N 31°36' W 118°11'3 6.1
2017-Aug-16 13:00N 31°34' W 118°08'3 6.7
2017-Aug-16 12:31N 31°35' W 118°04'3 6.8
2017-Aug-16 12:00N 31°36' W 118°01'3 6.7
2017-Aug-16 11:31N 31°37' W 117°57'4 7.1
2017-Aug-16 11:00N 31°38' W 117°53'4 7.2
2017-Aug-16 10:31N 31°39' W 117°49'4 7.4
2017-Aug-16 10:00N 31°40' W 117°44'4 7.4
2017-Aug-16 09:30N 31°41' W 117°40'4 7.1
2017-Aug-16 09:01N 31°42' W 117°36'4 7.3
2017-Aug-16 08:31N 31°43' W 117°32'4 7.3
2017-Aug-16 07:59N 31°44' W 117°28'4 7.1
2017-Aug-16 07:25N 31°45' W 117°23'3 6.7
2017-Aug-16 07:00N 31°46' W 117°20'4 7.0
2017-Aug-16 06:30N 31°47' W 117°16'3 6.8
2017-Aug-16 06:01N 31°48' W 117°12'4 6.8
2017-Aug-16 05:27N 31°49' W 117°08'3 7.0
2017-Aug-16 05:00N 31°50' W 117°04'4 7.4
2017-Aug-16 04:30N 31°51' W 117°00'4 6.9
2017-Aug-16 03:59N 31°52' W 116°56'4 7.0
2017-Aug-16 03:23N 31°53' W 116°51'3 7.2
2017-Aug-16 03:00N 31°53' W 116°48'4 7.1
2017-Aug-16 02:28N 31°51' W 116°45'1 0.1
2017-Aug-15 13:30N 31°50' W 116°44'14 8.3
2017-Aug-15 11:49N 31°56' W 116°59'3 9.0
2017-Aug-15 11:30N 31°57' W 117°02'5 8.5
2017-Aug-15 10:55N 31°58' W 117°07'3 8.3
2017-Aug-15 10:30N 31°58' W 117°11'4 8.3
2017-Aug-15 09:59N 31°60' W 117°16'4 8.4
2017-Aug-15 09:29N 32°03' W 117°20'4 8.3
2017-Aug-15 09:00N 32°06' W 117°23'4 8.5
2017-Aug-15 08:30N 32°09' W 117°26'4 8.6
2017-Aug-15 08:00N 32°12' W 117°30'4 8.7
2017-Aug-15 07:30N 32°15' W 117°33'4 8.8
2017-Aug-15 07:00N 32°20' W 117°34'5 9.3
2017-Aug-15 06:30N 32°24' W 117°35'5 9.7
2017-Aug-15 06:00N 32°29' W 117°37'510.1
2017-Aug-15 05:30N 32°32' W 117°42'510.6
2017-Aug-15 05:00N 32°37' W 117°45'510.7
2017-Aug-15 04:30N 32°42' W 117°47'510.8
2017-Aug-15 04:00N 32°47' W 117°48'510.7
2017-Aug-15 03:30N 32°52' W 117°50'510.3
2017-Aug-15 03:00N 32°57' W 117°53'510.5
2017-Aug-15 02:30N 33°01' W 117°57'510.5
2017-Aug-15 02:00N 33°05' W 118°01'510.4
2017-Aug-15 01:30N 33°09' W 118°05'510.2
2017-Aug-15 01:00N 33°12' W 118°09'510.1
2017-Aug-15 00:30N 33°16' W 118°13'5 9.6
2017-Aug-15 00:00N 33°20' W 118°17'2 4.3
2017-Aug-14 23:29N 33°21' W 118°19'0 0.1
2017-Aug-14 22:57N 33°21' W 118°19'0 0.1
2017-Aug-14 22:30N 33°21' W 118°19'0 0.1
2017-Aug-14 21:57N 33°21' W 118°19'0 0.1
2017-Aug-14 21:29N 33°21' W 118°19'0 0.0
2017-Aug-14 20:59N 33°21' W 118°19'0 0.0
2017-Aug-14 20:20N 33°21' W 118°19'0 0.0
2017-Aug-14 19:59N 33°21' W 118°19'0 0.0
2017-Aug-14 19:28N 33°21' W 118°19'0 0.0
2017-Aug-14 18:58N 33°21' W 118°19'0 0.0
2017-Aug-14 18:28N 33°21' W 118°19'0 0.0
2017-Aug-14 17:58N 33°21' W 118°19'0 0.1
2017-Aug-14 17:28N 33°21' W 118°19'0 0.0
2017-Aug-14 16:57N 33°21' W 118°19'0 0.0
2017-Aug-14 16:31N 33°21' W 118°19'0 0.0
2017-Aug-14 16:01N 33°21' W 118°19'0 0.0
2017-Aug-14 15:30N 33°21' W 118°19'0 0.0
2017-Aug-14 15:01N 33°21' W 118°19'0 0.0
2017-Aug-14 14:30N 33°21' W 118°19'0 0.3
2017-Aug-14 14:00N 33°21' W 118°19'3 5.6
2017-Aug-14 13:30N 33°19' W 118°17'3 7.0
2017-Aug-14 13:01N 33°15' W 118°17'3 6.6
2017-Aug-14 12:30N 33°12' W 118°17'3 6.7
2017-Aug-14 12:01N 33°08' W 118°17'3 7.0
2017-Aug-14 11:30N 33°05' W 118°16'3 6.7
2017-Aug-14 11:00N 33°03' W 118°13'3 6.6
2017-Aug-14 10:31N 33°01' W 118°10'3 6.6
2017-Aug-14 10:01N 32°58' W 118°08'3 6.8
2017-Aug-14 09:31N 32°56' W 118°05'4 6.9
2017-Aug-14 09:00N 32°54' W 118°01'3 6.4
2017-Aug-14 08:31N 32°52' W 117°58'3 5.9
2017-Aug-14 08:01N 32°55' W 117°56'3 6.8
2017-Aug-14 07:30N 32°58' W 117°57'4 7.3
2017-Aug-14 07:01N 33°02' W 117°58'4 7.0
2017-Aug-14 06:31N 33°05' W 117°60'4 7.0
2017-Aug-14 06:01N 33°08' W 118°01'4 7.1
2017-Aug-14 05:31N 33°11' W 118°03'3 6.9
2017-Aug-14 05:00N 33°15' W 118°04'3 7.0
2017-Aug-14 04:31N 33°18' W 118°06'4 7.2
2017-Aug-14 04:00N 33°21' W 118°07'3 7.0
2017-Aug-14 03:31N 33°25' W 118°09'3 7.0
2017-Aug-14 03:01N 33°28' W 118°10'3 6.9
2017-Aug-14 02:31N 33°31' W 118°11'4 7.7
2017-Aug-14 02:00N 33°35' W 118°13'611.1
2017-Aug-14 01:30N 33°40' W 118°12'4 8.5
2017-Aug-14 01:00N 33°44' W 118°11'1 1.7
2017-Aug-14 00:30N 33°45' W 118°11'0 0.0
2017-Aug-14 00:00N 33°45' W 118°11'0 0.0
2017-Aug-13 23:30N 33°45' W 118°11'0 0.0
2017-Aug-13 23:00N 33°45' W 118°11'0 0.0
2017-Aug-13 22:29N 33°45' W 118°11'0 0.0
2017-Aug-13 21:59N 33°45' W 118°11'0 0.0
2017-Aug-13 21:29N 33°45' W 118°11'0 0.0
2017-Aug-13 20:59N 33°45' W 118°11'0 0.0
2017-Aug-13 20:30N 33°45' W 118°11'0 0.0
2017-Aug-13 20:00N 33°45' W 118°11'0 0.0
2017-Aug-13 19:30N 33°45' W 118°11'0 0.0
2017-Aug-13 19:01N 33°45' W 118°11'0 0.0
2017-Aug-13 18:30N 33°45' W 118°11'0 0.0
2017-Aug-13 18:00N 33°45' W 118°11'0 0.0
2017-Aug-13 17:30N 33°45' W 118°11'0 0.1
2017-Aug-13 16:58N 33°45' W 118°11'0 0.1
2017-Aug-13 16:26N 33°45' W 118°11'0 0.0
2017-Aug-13 15:59N 33°45' W 118°11'0 0.0
2017-Aug-13 15:29N 33°45' W 118°11'0 0.0
2017-Aug-13 14:56N 33°45' W 118°11'0 0.0
2017-Aug-13 14:29N 33°45' W 118°11'0 0.0
2017-Aug-13 13:58N 33°45' W 118°11'0 0.0
2017-Aug-13 13:28N 33°45' W 118°11'0 0.0
2017-Aug-13 13:00N 33°45' W 118°11'0 0.7
2017-Aug-13 12:31N 33°45' W 118°11'3 6.3
2017-Aug-13 12:01N 33°42' W 118°11'5 9.2
2017-Aug-13 11:31N 33°37' W 118°10'4 8.1
2017-Aug-13 11:01N 33°33' W 118°09'4 7.4
2017-Aug-13 10:31N 33°30' W 118°07'4 7.0
2017-Aug-13 10:01N 33°27' W 118°05'3 6.3
2017-Aug-13 09:30N 33°24' W 118°04'3 6.9
2017-Aug-13 09:00N 33°20' W 118°03'3 6.9
2017-Aug-13 08:31N 33°17' W 118°01'3 7.0
2017-Aug-13 08:01N 33°14' W 117°60'3 7.0
2017-Aug-13 07:30N 33°11' W 117°58'4 7.1
2017-Aug-13 07:01N 33°07' W 117°57'4 7.2
2017-Aug-13 06:30N 33°04' W 117°55'4 7.2
2017-Aug-13 06:00N 33°01' W 117°53'4 7.2
2017-Aug-13 05:31N 32°57' W 117°52'4 7.5
2017-Aug-13 05:00N 32°54' W 117°50'4 7.3
2017-Aug-13 04:30N 32°50' W 117°49'4 7.5
2017-Aug-13 04:01N 32°47' W 117°49'4 7.4
2017-Aug-13 03:31N 32°43' W 117°47'4 7.3
2017-Aug-13 03:00N 32°40' W 117°46'4 7.2
2017-Aug-13 02:31N 32°36' W 117°44'4 7.6
2017-Aug-13 02:01N 32°35' W 117°40'4 7.0
2017-Aug-13 01:30N 32°33' W 117°37'4 7.4
2017-Aug-13 01:01N 32°29' W 117°37'4 7.2
2017-Aug-13 00:30N 32°26' W 117°36'4 7.4
2017-Aug-13 00:00N 32°22' W 117°37'4 7.5
2017-Aug-12 23:31N 32°18' W 117°37'4 7.0
2017-Aug-12 23:01N 32°15' W 117°37'3 6.6
2017-Aug-12 22:30N 32°11' W 117°37'3 6.7
2017-Aug-12 22:00N 32°08' W 117°37'3 6.6
2017-Aug-12 21:31N 32°05' W 117°36'3 6.5
2017-Aug-12 21:00N 32°02' W 117°36'3 6.6
2017-Aug-12 20:30N 31°58' W 117°36'3 6.5
2017-Aug-12 20:00N 31°55' W 117°37'3 6.7
2017-Aug-12 19:30N 31°52' W 117°37'3 6.1
2017-Aug-12 19:00N 31°50' W 117°39'3 6.8
2017-Aug-12 18:31N 31°49' W 117°43'3 6.9
2017-Aug-12 18:01N 31°48' W 117°47'3 6.8
2017-Aug-12 17:30N 31°47' W 117°51'3 6.6
2017-Aug-12 17:01N 31°47' W 117°55'3 6.7
2017-Aug-12 16:31N 31°46' W 117°59'3 6.5
2017-Aug-12 16:00N 31°46' W 118°03'3 6.6
2017-Aug-12 15:31N 31°45' W 118°06'3 6.7
2017-Aug-12 15:01N 31°45' W 118°10'3 6.9
2017-Aug-12 14:31N 31°41' W 118°12'4 7.2
2017-Aug-12 14:00N 31°38' W 118°11'3 6.6
2017-Aug-12 13:30N 31°35' W 118°10'3 6.4
2017-Aug-12 13:01N 31°35' W 118°06'4 7.0
2017-Aug-12 12:30N 31°36' W 118°02'3 7.0
2017-Aug-12 12:01N 31°37' W 117°58'4 7.0
2017-Aug-12 11:30N 31°38' W 117°54'3 7.0
2017-Aug-12 11:00N 31°39' W 117°50'3 6.9
2017-Aug-12 10:31N 31°40' W 117°46'4 7.0
2017-Aug-12 10:00N 31°41' W 117°42'3 7.0
2017-Aug-12 09:31N 31°42' W 117°39'3 7.0
2017-Aug-12 09:01N 31°43' W 117°35'4 7.1
2017-Aug-12 08:30N 31°44' W 117°31'4 7.0
2017-Aug-12 08:00N 31°45' W 117°27'3 6.7
2017-Aug-12 07:31N 31°45' W 117°23'3 6.6
2017-Aug-12 07:00N 31°46' W 117°19'3 6.4
2017-Aug-12 06:30N 31°47' W 117°15'4 6.9
2017-Aug-12 05:55N 31°48' W 117°11'3 6.8
2017-Aug-12 05:30N 31°49' W 117°08'10 6.7
2017-Aug-12 04:04N 31°52' W 116°57'2 6.9
2017-Aug-12 03:44N 31°52' W 116°54'4 6.9
2017-Aug-12 03:06N 31°53' W 116°49'1 6.4
2017-Aug-12 02:56N 31°53' W 116°48'3 6.6
2017-Aug-12 02:30N 31°51' W 116°45'5 0.4
2017-Aug-11 14:07N 31°50' W 116°39'711.1
2017-Aug-11 13:26N 31°53' W 116°47'512.3
2017-Aug-11 13:00N 31°54' W 116°53'612.5
2017-Aug-11 12:30N 31°55' W 117°00'611.6
2017-Aug-11 11:59N 31°57' W 117°07'612.1
2017-Aug-11 11:30N 31°59' W 117°14'611.6
2017-Aug-11 11:00N 32°02' W 117°19'612.1
2017-Aug-11 10:31N 32°07' W 117°24'612.4
2017-Aug-11 10:00N 32°12' W 117°29'612.1
2017-Aug-11 09:30N 32°17' W 117°33'612.3
2017-Aug-11 09:00N 32°23' W 117°35'612.7
2017-Aug-11 08:30N 32°29' W 117°36'612.2
2017-Aug-11 08:00N 32°35' W 117°38'611.8
2017-Aug-11 07:30N 32°37' W 117°45'612.2
2017-Aug-11 07:00N 32°42' W 117°47'612.6
2017-Aug-11 06:30N 32°49' W 117°49'612.5
2017-Aug-11 06:00N 32°55' W 117°50'612.0
2017-Aug-11 05:30N 33°00' W 117°53'612.4
2017-Aug-11 05:00N 33°05' W 117°57'612.4
2017-Aug-11 04:30N 33°11' W 118°01'612.5
2017-Aug-11 04:00N 33°16' W 118°04'612.0
2017-Aug-11 03:30N 33°22' W 118°07'611.6
2017-Aug-11 03:00N 33°27' W 118°10'611.7
2017-Aug-11 02:30N 33°33' W 118°12'611.5
2017-Aug-11 02:00N 33°38' W 118°12'510.5
2017-Aug-11 01:30N 33°44' W 118°11'2 2.8
2017-Aug-11 00:57N 33°45' W 118°11'0 0.0
2017-Aug-11 00:27N 33°45' W 118°11'0 0.0
2017-Aug-10 23:56N 33°45' W 118°11'0 0.0
2017-Aug-10 23:29N 33°45' W 118°11'0 0.0
2017-Aug-10 22:59N 33°45' W 118°11'0 0.0
2017-Aug-10 22:29N 33°45' W 118°11'0 0.0
2017-Aug-10 21:59N 33°45' W 118°11'0 0.0
2017-Aug-10 21:28N 33°45' W 118°11'0 0.0
2017-Aug-10 20:58N 33°45' W 118°11'0 0.0
2017-Aug-10 20:28N 33°45' W 118°11'0 0.0
2017-Aug-10 19:58N 33°45' W 118°11'0 0.0
2017-Aug-10 19:30N 33°45' W 118°11'0 0.0
2017-Aug-10 19:00N 33°45' W 118°11'0 0.0
2017-Aug-10 18:30N 33°45' W 118°11'0 0.0
2017-Aug-10 18:00N 33°45' W 118°11'0 0.0
2017-Aug-10 17:30N 33°45' W 118°11'0 0.0
2017-Aug-10 16:59N 33°45' W 118°11'0 0.0
2017-Aug-10 16:29N 33°45' W 118°11'0 0.0
2017-Aug-10 15:59N 33°45' W 118°11'0 0.0
2017-Aug-10 15:29N 33°45' W 118°11'0 0.0
2017-Aug-10 14:58N 33°45' W 118°11'0 0.0
2017-Aug-10 14:28N 33°45' W 118°11'0 0.0
2017-Aug-10 13:58N 33°45' W 118°11'0 0.0
2017-Aug-10 13:28N 33°45' W 118°11'0 0.0
2017-Aug-10 13:00N 33°45' W 118°11'0 0.7
2017-Aug-10 12:31N 33°45' W 118°11'3 5.2
2017-Aug-10 12:00N 33°42' W 118°11'5 9.4
2017-Aug-10 11:30N 33°38' W 118°10'4 7.8
2017-Aug-10 11:00N 33°34' W 118°09'4 7.7
2017-Aug-10 10:30N 33°30' W 118°07'3 6.9
2017-Aug-10 10:00N 33°27' W 118°06'3 6.9
2017-Aug-10 09:30N 33°24' W 118°04'4 7.0
2017-Aug-10 09:00N 33°20' W 118°03'3 6.9
2017-Aug-10 08:31N 33°17' W 118°01'3 6.8
2017-Aug-10 08:00N 33°14' W 117°60'3 6.8
2017-Aug-10 07:30N 33°11' W 117°58'4 7.3
2017-Aug-10 07:00N 33°07' W 117°57'4 7.1
2017-Aug-10 06:30N 33°04' W 117°55'4 7.1
2017-Aug-10 06:00N 33°01' W 117°53'3 7.0
2017-Aug-10 05:30N 32°58' W 117°52'3 7.0
2017-Aug-10 05:00N 32°54' W 117°50'3 7.0
2017-Aug-10 04:30N 32°51' W 117°49'3 7.0
2017-Aug-10 04:00N 32°48' W 117°48'4 7.8
2017-Aug-10 03:30N 32°44' W 117°48'4 7.6
2017-Aug-10 03:00N 32°40' W 117°47'4 7.3
2017-Aug-10 02:30N 32°37' W 117°45'4 7.8
2017-Aug-10 02:00N 32°36' W 117°40'4 7.4
2017-Aug-10 01:30N 32°33' W 117°37'4 7.4
2017-Aug-10 01:00N 32°30' W 117°37'4 7.2
2017-Aug-10 00:30N 32°26' W 117°37'4 7.3
2017-Aug-10 00:00N 32°22' W 117°37'4 7.5
2017-Aug-09 23:30N 32°19' W 117°37'4 7.5
2017-Aug-09 23:00N 32°15' W 117°37'4 7.3
2017-Aug-09 22:30N 32°11' W 117°37'3 7.0
2017-Aug-09 22:00N 32°08' W 117°36'4 7.3
2017-Aug-09 21:30N 32°04' W 117°37'4 7.4
2017-Aug-09 21:00N 32°01' W 117°37'4 7.3
2017-Aug-09 20:30N 31°57' W 117°36'4 7.3
2017-Aug-09 20:00N 31°53' W 117°37'3 7.0
2017-Aug-09 19:30N 31°50' W 117°37'4 7.1
2017-Aug-09 19:00N 31°48' W 117°41'4 7.3
2017-Aug-09 18:30N 31°46' W 117°45'4 7.3
2017-Aug-09 18:00N 31°45' W 117°49'3 6.3
2017-Aug-09 17:30N 31°42' W 117°50'3 6.5
2017-Aug-09 17:00N 31°43' W 117°54'3 6.9
2017-Aug-09 16:30N 31°46' W 117°57'4 7.0
2017-Aug-09 16:00N 31°46' W 118°01'4 7.1
2017-Aug-09 15:30N 31°45' W 118°05'3 6.4
2017-Aug-09 15:00N 31°44' W 118°09'3 6.9
2017-Aug-09 14:30N 31°42' W 118°12'3 7.0
2017-Aug-09 14:00N 31°39' W 118°11'3 6.9
2017-Aug-09 13:30N 31°35' W 118°10'3 6.1
2017-Aug-09 13:00N 31°35' W 118°07'3 6.7
2017-Aug-09 12:30N 31°36' W 118°03'3 6.7
2017-Aug-09 12:00N 31°37' W 117°59'3 6.9
2017-Aug-09 11:30N 31°38' W 117°55'4 7.3
2017-Aug-09 11:00N 31°38' W 117°51'4 7.2
2017-Aug-09 10:30N 31°39' W 117°47'4 7.1
2017-Aug-09 09:56N 31°41' W 117°43'3 7.3
2017-Aug-09 09:30N 31°41' W 117°39'4 7.1
2017-Aug-09 09:00N 31°42' W 117°35'4 7.3
2017-Aug-09 08:30N 31°43' W 117°31'4 7.3
2017-Aug-09 08:00N 31°44' W 117°27'4 7.1
2017-Aug-09 07:30N 31°45' W 117°23'3 6.7
2017-Aug-09 07:00N 31°46' W 117°19'4 6.5
2017-Aug-09 06:26N 31°47' W 117°15'3 6.6
2017-Aug-09 05:59N 31°48' W 117°12'3 7.0
2017-Aug-09 05:30N 31°49' W 117°08'4 7.0
2017-Aug-09 04:59N 31°50' W 117°04'4 6.8
2017-Aug-09 04:26N 31°51' W 116°59'3 6.5
2017-Aug-09 03:55N 31°52' W 116°56'3 6.9
2017-Aug-09 03:29N 31°52' W 116°52'3 6.8
2017-Aug-09 03:00N 31°53' W 116°48'3 6.7
2017-Aug-09 02:30N 31°51' W 116°45'3 6.6
2017-Aug-09 02:00N 31°50' W 116°41'1 0.1
2017-Aug-08 13:55N 31°50' W 116°40'4 7.2
2017-Aug-08 13:25N 31°50' W 116°44'3 6.7
2017-Aug-08 13:00N 31°52' W 116°46'5 9.4
2017-Aug-08 12:29N 31°54' W 116°52'5 9.6
2017-Aug-08 12:00N 31°55' W 116°57'5 9.5
2017-Aug-08 11:31N 31°56' W 117°02'5 9.2
2017-Aug-08 11:00N 31°58' W 117°08'  

Dump ship's entire track history